sensor_id;sensor_type;location;lat;lon;timestamp;pressure;altitude;pressure_sealevel;temperature;humidity
22862;BME280;11598;50.652;6.172;2023-07-13T00:02:37;96478.44;;;11.77;84.08
22862;BME280;11598;50.652;6.172;2023-07-13T00:12:38;96469.81;;;11.76;84.42
22862;BME280;11598;50.652;6.172;2023-07-13T00:22:39;96479.88;;;11.70;84.44
22862;BME280;11598;50.652;6.172;2023-07-13T00:32:39;96471.97;;;11.60;85.18
22862;BME280;11598;50.652;6.172;2023-07-13T00:42:40;96478.00;;;11.49;85.71
22862;BME280;11598;50.652;6.172;2023-07-13T00:52:48;96477.16;;;11.37;86.12
22862;BME280;11598;50.652;6.172;2023-07-13T01:02:50;96473.38;;;11.30;86.98
22862;BME280;11598;50.652;6.172;2023-07-13T01:12:50;96466.41;;;11.19;87.41
22862;BME280;11598;50.652;6.172;2023-07-13T01:22:52;96460.63;;;11.16;87.89
22862;BME280;11598;50.652;6.172;2023-07-13T01:32:52;96460.38;;;11.19;88.09
22862;BME280;11598;50.652;6.172;2023-07-13T01:42:53;96462.97;;;11.19;88.12
22862;BME280;11598;50.652;6.172;2023-07-13T01:52:53;96464.84;;;11.17;89.05
22862;BME280;11598;50.652;6.172;2023-07-13T02:02:54;96476.31;;;11.14;89.98
22862;BME280;11598;50.652;6.172;2023-07-13T02:12:54;96471.84;;;11.16;90.68
22862;BME280;11598;50.652;6.172;2023-07-13T02:22:55;96484.63;;;11.19;91.69
22862;BME280;11598;50.652;6.172;2023-07-13T02:32:58;96482.94;;;11.18;92.42
22862;BME280;11598;50.652;6.172;2023-07-13T02:42:59;96476.47;;;11.13;93.16
22862;BME280;11598;50.652;6.172;2023-07-13T02:53:00;96485.91;;;11.14;94.14
22862;BME280;11598;50.652;6.172;2023-07-13T03:03:00;96475.25;;;11.17;95.20
22862;BME280;11598;50.652;6.172;2023-07-13T03:13:01;96480.47;;;11.17;96.11
22862;BME280;11598;50.652;6.172;2023-07-13T03:23:02;96487.69;;;11.13;96.72
22862;BME280;11598;50.652;6.172;2023-07-13T03:33:03;96491.09;;;11.14;97.40
22862;BME280;11598;50.652;6.172;2023-07-13T03:43:03;96486.63;;;11.16;97.74
22862;BME280;11598;50.652;6.172;2023-07-13T03:53:04;96505.53;;;11.18;98.52
22862;BME280;11598;50.652;6.172;2023-07-13T04:03:04;96505.09;;;11.24;99.57
22862;BME280;11598;50.652;6.172;2023-07-13T04:13:06;96515.38;;;11.37;100.00
22862;BME280;11598;50.652;6.172;2023-07-13T04:23:06;96516.19;;;11.60;100.00
22862;BME280;11598;50.652;6.172;2023-07-13T04:33:07;96523.28;;;11.92;100.00
22862;BME280;11598;50.652;6.172;2023-07-13T04:43:08;96518.38;;;12.21;99.30
22862;BME280;11598;50.652;6.172;2023-07-13T04:53:10;96523.53;;;12.32;98.87
22862;BME280;11598;50.652;6.172;2023-07-13T05:03:10;96533.03;;;12.65;98.52
22862;BME280;11598;50.652;6.172;2023-07-13T05:13:11;96537.19;;;13.10;97.86
22862;BME280;11598;50.652;6.172;2023-07-13T05:23:11;96549.91;;;13.45;96.29
22862;BME280;11598;50.652;6.172;2023-07-13T05:33:12;96553.28;;;13.57;95.34
22862;BME280;11598;50.652;6.172;2023-07-13T05:43:13;96567.81;;;13.50;94.87
22862;BME280;11598;50.652;6.172;2023-07-13T05:53:14;96570.56;;;13.58;95.29
22862;BME280;11598;50.652;6.172;2023-07-13T06:03:15;96583.31;;;13.82;94.75
22862;BME280;11598;50.652;6.172;2023-07-13T06:13:16;96593.13;;;13.90;94.73
22862;BME280;11598;50.652;6.172;2023-07-13T06:23:16;96594.63;;;14.23;94.18
22862;BME280;11598;50.652;6.172;2023-07-13T06:33:16;96608.81;;;14.30;93.60
22862;BME280;11598;50.652;6.172;2023-07-13T06:43:17;96607.53;;;14.75;92.63
22862;BME280;11598;50.652;6.172;2023-07-13T06:53:19;96615.38;;;15.33;90.33
22862;BME280;11598;50.652;6.172;2023-07-13T07:03:20;96624.09;;;15.91;89.21
22862;BME280;11598;50.652;6.172;2023-07-13T07:13:20;96625.34;;;16.69;86.40
22862;BME280;11598;50.652;6.172;2023-07-13T07:23:22;96615.78;;;17.14;82.66
22862;BME280;11598;50.652;6.172;2023-07-13T07:33:23;96635.63;;;17.26;80.99
22862;BME280;11598;50.652;6.172;2023-07-13T07:43:23;96632.16;;;17.96;79.58
22862;BME280;11598;50.652;6.172;2023-07-13T07:53:23;96643.56;;;18.39;75.67
22862;BME280;11598;50.652;6.172;2023-07-13T08:03:24;96631.94;;;19.17;73.62
22862;BME280;11598;50.652;6.172;2023-07-13T08:13:24;96640.66;;;19.67;69.42
22862;BME280;11598;50.652;6.172;2023-07-13T08:23:25;96633.59;;;19.42;68.08
22862;BME280;11598;50.652;6.172;2023-07-13T08:33:26;96633.94;;;20.28;66.43
22862;BME280;11598;50.652;6.172;2023-07-13T08:43:30;96640.97;;;19.88;65.79
22862;BME280;11598;50.652;6.172;2023-07-13T08:53:38;96643.47;;;19.40;67.18
22862;BME280;11598;50.652;6.172;2023-07-13T09:04:14;96651.88;;;19.52;67.07
22862;BME280;11598;50.652;6.172;2023-07-13T09:24:37;96642.78;;;19.79;66.33
22862;BME280;11598;50.652;6.172;2023-07-13T09:34:38;96636.88;;;19.20;66.34
22862;BME280;11598;50.652;6.172;2023-07-13T09:44:58;96637.00;;;18.94;68.12
22862;BME280;11598;50.652;6.172;2023-07-13T09:54:59;96635.72;;;19.22;66.46
22862;BME280;11598;50.652;6.172;2023-07-13T10:05:13;96647.59;;;19.43;65.54
22862;BME280;11598;50.652;6.172;2023-07-13T10:15:19;96657.28;;;19.75;65.77
22862;BME280;11598;50.652;6.172;2023-07-13T10:25:26;96655.31;;;19.77;62.89
22862;BME280;11598;50.652;6.172;2023-07-13T10:35:29;96674.75;;;19.84;63.40
22862;BME280;11598;50.652;6.172;2023-07-13T10:45:34;96679.03;;;19.85;62.35
22862;BME280;11598;50.652;6.172;2023-07-13T10:55:41;96685.78;;;19.63;63.03
22862;BME280;11598;50.652;6.172;2023-07-13T11:06:34;96699.31;;;19.77;62.29
22862;BME280;11598;50.652;6.172;2023-07-13T11:16:45;96705.56;;;20.00;62.40
22862;BME280;11598;50.652;6.172;2023-07-13T11:36:47;96700.63;;;19.97;61.53
22862;BME280;11598;50.652;6.172;2023-07-13T11:46:53;96697.97;;;20.14;61.72
22862;BME280;11598;50.652;6.172;2023-07-13T11:57:27;96707.50;;;20.23;61.56
22862;BME280;11598;50.652;6.172;2023-07-13T12:07:31;96700.25;;;20.25;60.76
22862;BME280;11598;50.652;6.172;2023-07-13T12:17:34;96702.91;;;20.00;61.77
22862;BME280;11598;50.652;6.172;2023-07-13T12:27:35;96705.72;;;19.91;62.57
22862;BME280;11598;50.652;6.172;2023-07-13T12:37:35;96711.81;;;20.08;61.07
22862;BME280;11598;50.652;6.172;2023-07-13T12:47:44;96718.88;;;20.15;59.57
22862;BME280;11598;50.652;6.172;2023-07-13T12:57:49;96720.00;;;20.37;58.62
22862;BME280;11598;50.652;6.172;2023-07-13T13:07:52;96711.56;;;20.42;58.75
22862;BME280;11598;50.652;6.172;2023-07-13T13:17:52;96720.06;;;19.96;60.32
22862;BME280;11598;50.652;6.172;2023-07-13T13:27:53;96717.28;;;19.90;59.79
22862;BME280;11598;50.652;6.172;2023-07-13T13:37:53;96699.31;;;19.93;58.87
22862;BME280;11598;50.652;6.172;2023-07-13T13:47:54;96689.88;;;19.99;57.70
22862;BME280;11598;50.652;6.172;2023-07-13T13:57:55;96689.25;;;19.97;58.58
22862;BME280;11598;50.652;6.172;2023-07-13T14:07:55;96689.22;;;20.13;58.04
22862;BME280;11598;50.652;6.172;2023-07-13T14:18:00;96686.25;;;20.08;58.14
22862;BME280;11598;50.652;6.172;2023-07-13T14:28:04;96683.25;;;20.19;57.31
22862;BME280;11598;50.652;6.172;2023-07-13T14:38:15;96695.00;;;20.09;58.40
22862;BME280;11598;50.652;6.172;2023-07-13T14:48:23;96694.03;;;19.93;59.26
22862;BME280;11598;50.652;6.172;2023-07-13T14:58:24;96691.03;;;20.21;59.13
22862;BME280;11598;50.652;6.172;2023-07-13T15:08:25;96697.16;;;19.97;58.65
22862;BME280;11598;50.652;6.172;2023-07-13T15:18:25;96695.34;;;19.73;59.12
22862;BME280;11598;50.652;6.172;2023-07-13T15:28:27;96691.22;;;19.87;58.35
22862;BME280;11598;50.652;6.172;2023-07-13T15:38:30;96696.31;;;19.55;59.24
22862;BME280;11598;50.652;6.172;2023-07-13T15:48:30;96696.94;;;19.08;61.42
22862;BME280;11598;50.652;6.172;2023-07-13T15:58:31;96701.91;;;18.34;66.28
22862;BME280;11598;50.652;6.172;2023-07-13T16:08:32;96694.88;;;17.73;69.77
22862;BME280;11598;50.652;6.172;2023-07-13T16:18:32;96698.91;;;17.41;71.67
22862;BME280;11598;50.652;6.172;2023-07-13T16:28:33;96696.38;;;17.31;72.98
22862;BME280;11598;50.652;6.172;2023-07-13T16:38:34;96720.28;;;17.10;76.41
22862;BME280;11598;50.652;6.172;2023-07-13T16:48:35;96708.56;;;16.87;79.02
22862;BME280;11598;50.652;6.172;2023-07-13T16:58:35;96721.31;;;16.72;80.27
22862;BME280;11598;50.652;6.172;2023-07-13T17:08:36;96721.25;;;16.92;78.48
22862;BME280;11598;50.652;6.172;2023-07-13T17:18:36;96712.13;;;16.86;77.04
22862;BME280;11598;50.652;6.172;2023-07-13T17:28:37;96722.81;;;16.75;76.91
22862;BME280;11598;50.652;6.172;2023-07-13T17:38:40;96717.16;;;16.69;76.56
22862;BME280;11598;50.652;6.172;2023-07-13T17:48:42;96711.84;;;16.61;77.58
22862;BME280;11598;50.652;6.172;2023-07-13T17:58:44;96719.19;;;16.48;78.65
22862;BME280;11598;50.652;6.172;2023-07-13T18:08:57;96715.94;;;16.36;79.80
22862;BME280;11598;50.652;6.172;2023-07-13T18:18:59;96711.53;;;16.27;81.26
22862;BME280;11598;50.652;6.172;2023-07-13T18:29:01;96716.03;;;16.07;82.26
22862;BME280;11598;50.652;6.172;2023-07-13T18:39:02;96729.03;;;15.89;83.24
22862;BME280;11598;50.652;6.172;2023-07-13T18:49:08;96727.81;;;15.74;84.37
22862;BME280;11598;50.652;6.172;2023-07-13T18:59:11;96726.84;;;15.55;85.06
22862;BME280;11598;50.652;6.172;2023-07-13T19:09:11;96723.53;;;15.34;85.31
22862;BME280;11598;50.652;6.172;2023-07-13T19:19:16;96728.19;;;15.11;86.60
22862;BME280;11598;50.652;6.172;2023-07-13T19:29:18;96742.16;;;14.80;88.04
22862;BME280;11598;50.652;6.172;2023-07-13T19:39:34;96747.84;;;14.55;88.56
22862;BME280;11598;50.652;6.172;2023-07-13T19:49:35;96747.16;;;14.32;89.48
22862;BME280;11598;50.652;6.172;2023-07-13T19:59:35;96753.72;;;14.16;90.51
22862;BME280;11598;50.652;6.172;2023-07-13T20:09:36;96749.03;;;13.99;90.98
22862;BME280;11598;50.652;6.172;2023-07-13T20:19:37;96750.84;;;13.78;91.97
22862;BME280;11598;50.652;6.172;2023-07-13T20:29:37;96756.19;;;13.55;93.46
22862;BME280;11598;50.652;6.172;2023-07-13T20:39:38;96751.34;;;13.50;94.88
22862;BME280;11598;50.652;6.172;2023-07-13T20:49:38;96749.63;;;13.61;94.37
22862;BME280;11598;50.652;6.172;2023-07-13T20:59:39;96756.69;;;13.70;93.89
22862;BME280;11598;50.652;6.172;2023-07-13T21:09:40;96770.16;;;13.86;92.73
22862;BME280;11598;50.652;6.172;2023-07-13T21:19:41;96765.03;;;14.06;91.47
22862;BME280;11598;50.652;6.172;2023-07-13T21:29:44;96768.63;;;14.26;89.98
22862;BME280;11598;50.652;6.172;2023-07-13T21:39:50;96777.91;;;14.40;88.80
22862;BME280;11598;50.652;6.172;2023-07-13T21:49:51;96775.06;;;14.52;87.90
22862;BME280;11598;50.652;6.172;2023-07-13T21:59:52;96771.69;;;14.62;87.26
22862;BME280;11598;50.652;6.172;2023-07-13T22:09:52;96766.06;;;14.66;86.23
22862;BME280;11598;50.652;6.172;2023-07-13T22:19:52;96764.13;;;14.58;86.16
22862;BME280;11598;50.652;6.172;2023-07-13T22:29:53;96765.75;;;14.59;85.79
22862;BME280;11598;50.652;6.172;2023-07-13T22:39:53;96773.91;;;14.66;85.20
22862;BME280;11598;50.652;6.172;2023-07-13T22:49:54;96763.47;;;14.66;85.36
22862;BME280;11598;50.652;6.172;2023-07-13T22:59:55;96761.66;;;14.67;85.46
22862;BME280;11598;50.652;6.172;2023-07-13T23:09:55;96757.22;;;14.57;86.71
22862;BME280;11598;50.652;6.172;2023-07-13T23:19:56;96744.88;;;14.38;86.99
22862;BME280;11598;50.652;6.172;2023-07-13T23:29:56;96747.38;;;14.19;88.03
22862;BME280;11598;50.652;6.172;2023-07-13T23:39:56;96750.13;;;14.17;88.82
22862;BME280;11598;50.652;6.172;2023-07-13T23:49:57;96735.28;;;14.18;88.79
22862;BME280;11598;50.652;6.172;2023-07-13T23:59:57;96729.88;;;14.10;88.95
